createdAt,value
2016-04-23T06:32:55.597Z,58.73
2016-04-23T06:33:55.568Z,57.87
2016-04-23T06:34:55.555Z,57.87
2016-04-23T06:35:55.573Z,58.06
2016-04-23T06:36:55.499Z,57.97
2016-04-23T06:37:55.471Z,57.68
2016-04-23T06:38:55.457Z,57.59
2016-04-23T06:39:55.429Z,58.16
2016-04-23T06:40:55.400Z,57.97
2016-04-23T06:41:55.371Z,57.68
2016-04-23T06:42:55.358Z,57.59
2016-04-23T06:43:55.329Z,57.68
2016-04-23T06:44:55.301Z,57.87
2016-04-23T06:45:55.273Z,57.78
2016-04-23T06:46:55.259Z,57.21
2016-04-23T06:47:55.231Z,57.21
2016-04-23T06:48:55.203Z,57.4
2016-04-23T06:49:55.189Z,57.3
2016-04-23T06:50:55.161Z,57.11
2016-04-23T06:51:55.132Z,56.92
2016-04-23T06:52:55.104Z,57.3
2016-04-23T06:53:55.092Z,57.21
2016-04-23T06:54:55.063Z,57.11
2016-04-23T06:55:55.034Z,57.11
2016-04-23T06:56:55.021Z,57.5
2016-04-23T06:57:54.992Z,57.3
2016-04-23T06:58:54.964Z,57.11
2016-04-23T06:59:54.935Z,57.4
2016-04-23T07:00:54.922Z,57.78
2016-04-23T07:01:54.894Z,57.78
2016-04-23T07:02:54.866Z,57.97
2016-04-23T07:03:54.852Z,57.68
2016-04-23T07:04:54.824Z,58.44
2016-04-23T07:05:54.810Z,58.44
2016-04-23T07:06:54.782Z,58.54
2016-04-23T07:07:54.768Z,58.25
2016-04-23T07:08:54.726Z,58.25
2016-04-23T07:09:54.697Z,57.78
2016-04-23T07:10:54.684Z,57.78
2016-04-23T07:11:54.655Z,57.59
2016-04-23T07:12:54.626Z,58
2016-04-23T07:13:54.614Z,57.52
2016-04-23T07:14:54.601Z,56.95
2016-04-23T07:15:54.556Z,56.95
2016-04-23T07:16:54.543Z,57.04
2016-04-23T07:17:54.515Z,56.48
2016-04-23T07:18:54.487Z,56.19
2016-04-23T07:19:54.473Z,55.9
2016-04-23T07:20:54.445Z,56.38
2016-04-23T07:21:54.431Z,55.52
2016-04-23T07:22:54.403Z,55.15
2016-04-23T07:23:54.375Z,55.27
2016-04-23T07:24:54.347Z,55.27
2016-04-23T07:25:54.505Z,54.69
2016-04-23T07:26:54.305Z,54.69
2016-04-23T07:27:54.291Z,53.94
2016-04-23T07:28:54.263Z,53.94
2016-04-23T07:29:54.235Z,53.46
2016-04-23T07:30:55.300Z,53.55
2016-04-23T07:31:54.193Z,53.08
2016-04-23T07:32:54.180Z,52.61
2016-04-23T07:33:54.152Z,52.51
2016-04-23T07:34:54.123Z,52.51
2016-04-23T07:35:54.110Z,52.41
2016-04-23T07:36:54.082Z,52.13
2016-04-23T07:37:54.054Z,52.03
2016-04-23T07:38:54.040Z,51.93
2016-04-23T07:39:54.012Z,51.84
2016-04-23T07:40:54.326Z,51.65
2016-04-23T07:41:54.002Z,51.27
2016-04-23T07:42:54.018Z,51.27
2016-04-23T07:43:54.049Z,51.46
2016-04-23T07:44:54.065Z,51.18
2016-04-23T07:45:54.579Z,51.46
2016-04-23T07:46:54.089Z,51.08
2016-04-23T07:47:54.077Z,50.79
2016-04-23T07:48:54.080Z,50.32
2016-04-23T07:49:54.068Z,50.99
2016-04-23T07:50:54.055Z,50.42
2016-04-23T07:51:54.051Z,50.32
2016-04-23T07:52:54.028Z,50.42
2016-04-23T07:53:54.005Z,49.85
2016-04-23T07:54:53.998Z,49.94
2016-04-23T07:55:53.974Z,50.04
2016-04-23T07:56:53.965Z,49.85
2016-04-23T07:57:53.939Z,49.65
2016-04-23T07:58:53.912Z,49.94
2016-04-23T07:59:53.901Z,50.04
2016-04-23T08:00:53.874Z,49.73
2016-04-23T08:01:53.862Z,50.04
2016-04-23T08:02:53.834Z,49.37
2016-04-23T08:03:53.807Z,49.56
2016-04-23T08:04:53.795Z,49.65
2016-04-23T08:05:55.017Z,49.56
2016-04-23T08:06:53.754Z,49.65
2016-04-23T08:07:53.727Z,49.65
2016-04-23T08:08:53.698Z,49.65
2016-04-23T08:09:53.669Z,49.65
2016-04-23T08:10:53.657Z,49.65
2016-04-23T08:11:53.628Z,49.75
2016-04-23T08:12:53.616Z,49.08
2016-04-23T08:13:53.587Z,48.8
2016-04-23T08:14:53.559Z,48.8
2016-04-23T08:15:53.545Z,48.71
2016-04-23T08:16:53.517Z,48.61
2016-04-23T08:17:53.488Z,48.9
2016-04-23T08:18:53.476Z,48.71
2016-04-23T08:19:53.463Z,48.32
2016-04-23T08:20:53.418Z,48.32
2016-04-23T08:21:53.405Z,48.71
2016-04-23T08:22:53.377Z,48.61
2016-04-23T08:23:53.364Z,48.61
2016-04-23T08:24:53.335Z,48.61
2016-04-23T08:25:53.323Z,48.42
2016-04-23T08:26:53.294Z,48.23
2016-04-23T08:27:53.266Z,47.85
2016-04-23T08:28:53.252Z,47.56
2016-04-23T08:29:53.229Z,47.47
2016-04-23T08:30:53.200Z,47.75
2016-04-23T08:31:53.188Z,47.75
2016-04-23T08:32:53.159Z,47.75
2016-04-23T08:33:53.146Z,47.37
2016-04-23T08:34:53.117Z,47.28
2016-04-23T08:35:53.089Z,46.8
2016-04-23T08:36:53.076Z,46.8
2016-04-23T08:37:53.047Z,46.99
2016-04-23T08:38:53.035Z,46.89
2016-04-23T08:39:53.006Z,46.14
2016-04-23T08:40:52.977Z,45.68
2016-04-23T08:41:52.965Z,45.87
2016-04-23T08:42:52.936Z,45.21
2016-04-23T08:43:52.922Z,45.09
2016-04-23T08:44:52.895Z,45.11
2016-04-23T08:45:52.881Z,45.28
2016-04-23T08:46:52.852Z,45.85
2016-04-23T08:47:52.839Z,45.56
2016-04-23T08:48:52.812Z,46.06
2016-04-23T08:49:52.799Z,45.59
2016-04-23T08:50:52.769Z,45.97
2016-04-23T08:51:52.742Z,46.25
2016-04-23T08:52:52.728Z,46.06
2016-04-23T08:53:52.699Z,45.87
2016-04-23T08:54:52.687Z,45.78
2016-04-23T08:55:52.658Z,45.87
2016-04-23T08:56:52.646Z,46.18
2016-04-23T08:57:52.617Z,45.7
2016-04-23T08:58:52.604Z,45.14
2016-04-23T08:59:52.591Z,45.04
2016-04-23T09:00:52.562Z,45.04
2016-04-23T09:01:52.565Z,44.46
2016-04-23T09:02:52.521Z,43.99
2016-04-23T09:03:52.507Z,43.61
2016-04-23T09:04:52.495Z,43.23
2016-04-23T09:05:52.467Z,43.35
2016-04-23T09:06:52.454Z,43.16
2016-04-23T09:07:52.440Z,43.16
2016-04-23T09:08:52.428Z,42.89
2016-04-23T09:09:52.414Z,41.75
2016-04-23T09:10:52.386Z,41.27
2016-04-23T09:11:52.373Z,40.15
2016-04-23T09:12:52.361Z,40.41
2016-04-23T09:13:52.347Z,39.84
2016-04-23T09:14:52.334Z,40.32
2016-04-23T09:15:52.322Z,39.84
2016-04-23T09:16:52.292Z,39.17
2016-04-23T09:17:52.280Z,38.98
2016-04-23T09:18:52.267Z,39.36
2016-04-23T09:19:52.255Z,39.46
2016-04-23T09:20:52.225Z,39.94
2016-04-23T09:21:52.213Z,39.73
2016-04-23T09:22:52.183Z,40.01
2016-04-23T09:23:52.171Z,40.77
2016-04-23T09:24:52.158Z,41.06
2016-04-23T09:25:52.130Z,41.25
2016-04-23T09:26:52.117Z,41.52
2016-04-23T09:27:52.088Z,41.61
2016-04-23T09:28:52.074Z,42.37
2016-04-23T09:29:52.047Z,42.85
2016-04-23T09:30:52.034Z,43.04
2016-04-23T09:31:52.005Z,43.87
2016-04-23T09:32:52.024Z,44.64
2016-04-23T09:33:51.995Z,45.01
2016-04-23T09:34:51.935Z,45.68
2016-04-23T09:35:51.923Z,46.06
2016-04-23T09:36:51.893Z,47.18
2016-04-23T09:37:51.865Z,47.37
2016-04-23T09:38:51.851Z,48.61
2016-04-23T09:39:51.823Z,48.8
2016-04-23T09:40:51.811Z,49.46
2016-04-23T09:41:51.782Z,49.91
2016-04-23T09:42:51.753Z,50.48
2016-04-23T09:43:51.725Z,51.34
2016-04-23T09:44:51.712Z,51.15
2016-04-23T09:45:51.699Z,52.01
2016-04-23T09:46:51.670Z,51.91
2016-04-23T09:47:51.642Z,52.48
2016-04-23T09:48:51.614Z,52.48
2016-04-23T09:49:51.586Z,53.34
2016-04-23T09:50:51.572Z,53.81
2016-04-23T09:51:51.544Z,54
2016-04-23T09:52:51.514Z,54.26
2016-04-23T09:53:51.502Z,54.29
2016-04-23T09:54:51.474Z,54.48
2016-04-23T09:55:51.460Z,54.48
2016-04-23T09:56:51.432Z,54.67
2016-04-23T09:57:51.403Z,54.19
2016-04-23T09:58:51.374Z,54.67
2016-04-23T09:59:51.346Z,54.48
2016-04-23T10:00:51.333Z,54.38
2016-04-23T10:01:51.305Z,53.81
2016-04-23T10:02:51.277Z,53.72
2016-04-23T10:03:51.263Z,53.72
2016-04-23T10:04:51.234Z,53.63
2016-04-23T10:05:51.206Z,52.48
2016-04-23T10:06:51.193Z,52.39
2016-04-23T10:07:51.165Z,51.84
2016-04-23T10:08:51.136Z,51.37
2016-04-23T10:09:51.123Z,51.27
2016-04-23T10:10:51.095Z,51.18
2016-04-23T10:11:51.081Z,50.51
2016-04-23T10:12:51.053Z,51.08
2016-04-23T10:13:51.040Z,50.13
2016-04-23T10:14:51.011Z,49.94
2016-04-23T10:15:51.373Z,49.68
2016-04-23T10:16:50.970Z,49.68
2016-04-23T10:17:50.941Z,49.77
2016-04-23T10:18:50.928Z,49.01
2016-04-23T10:19:51.072Z,48.63
2016-04-23T10:20:50.887Z,48.44
2016-04-23T10:21:50.858Z,47.42
2016-04-23T10:22:50.844Z,47.02
2016-04-23T10:23:50.820Z,47.02
2016-04-23T10:24:50.808Z,47.11
2016-04-23T10:25:50.778Z,47.04
2016-04-23T10:26:50.766Z,47.02
2016-04-23T10:27:50.736Z,46.56
2016-04-23T10:28:50.724Z,46.56
2016-04-23T10:29:50.696Z,46.28
2016-04-23T10:30:50.682Z,46.09
2016-04-23T10:31:50.654Z,45.14
2016-04-23T10:32:50.641Z,45.23
2016-04-23T10:33:50.613Z,45.11
2016-04-23T10:34:50.599Z,45.59
2016-04-23T10:35:50.571Z,45.68
2016-04-23T10:36:50.557Z,45.68
2016-04-23T10:37:50.529Z,45.78
2016-04-23T10:38:50.516Z,45.68
2016-04-23T10:39:50.487Z,45.3
2016-04-23T10:40:50.475Z,45.11
2016-04-23T10:41:50.462Z,45.01
2016-04-23T10:42:50.434Z,44.73
2016-04-23T10:43:50.420Z,44.45
2016-04-23T10:44:50.392Z,44.56
2016-04-23T10:45:50.379Z,43.9
2016-04-23T10:46:50.351Z,43.61
2016-04-23T10:47:50.322Z,43.32
2016-04-23T10:48:50.309Z,42.94
2016-04-23T10:49:50.281Z,42.08
2016-04-23T10:50:50.268Z,41.61
2016-04-23T10:51:50.239Z,41.23
2016-04-23T10:52:50.226Z,41.71
2016-04-23T10:53:50.197Z,41.13
2016-04-23T10:54:50.185Z,40.39
2016-04-23T10:55:50.156Z,40.39
2016-04-23T10:56:50.143Z,39.82
2016-04-23T10:57:50.114Z,39.63
2016-04-23T10:58:50.133Z,39.73
2016-04-23T10:59:50.073Z,39.53
2016-04-23T11:00:50.060Z,39.75
2016-04-23T11:01:50.032Z,40.22
2016-04-23T11:02:50.034Z,40.22
2016-04-23T11:03:50.005Z,40.03
2016-04-23T11:04:50.399Z,40.22
2016-04-23T11:05:49.949Z,40.22
2016-04-23T11:06:49.967Z,40.22
2016-04-23T11:07:49.923Z,39.84
2016-04-23T11:08:49.894Z,39.08
2016-04-23T11:09:49.881Z,38.51
2016-04-23T11:10:49.868Z,38.32
2016-04-23T11:11:49.840Z,38.41
2016-04-23T11:12:49.812Z,38.2
2016-04-23T11:13:49.799Z,38.49
2016-04-23T11:14:49.784Z,38.58
2016-04-23T11:15:49.756Z,38.87
2016-04-23T11:16:49.743Z,38.49
2016-04-23T11:17:49.715Z,38.39
2016-04-23T11:18:49.703Z,38.49
2016-04-23T11:19:49.706Z,38.68
2016-04-23T11:20:49.661Z,38.49
2016-04-23T11:21:49.632Z,38.1
2016-04-23T11:22:49.603Z,38.49
2016-04-23T11:23:49.591Z,38.39
2016-04-23T11:24:49.562Z,38.78
2016-04-23T11:25:49.549Z,39.15
2016-04-23T11:26:49.520Z,38.85
2016-04-23T11:27:49.508Z,39.44
2016-04-23T11:28:49.480Z,39.42
2016-04-23T11:29:49.482Z,39.51
2016-04-23T11:30:49.438Z,39.34
2016-04-23T11:31:49.425Z,39.44
2016-04-23T11:32:49.396Z,38.96
2016-04-23T11:33:49.383Z,38.87
2016-04-23T11:34:49.355Z,38.78
2016-04-23T11:35:49.342Z,38.39
2016-04-23T11:36:49.313Z,38.39
2016-04-23T11:37:49.285Z,38.49
2016-04-23T11:38:49.272Z,38.2
2016-04-23T11:39:49.243Z,38.01
2016-04-23T11:40:49.230Z,37.82
2016-04-23T11:41:49.201Z,37.73
2016-04-23T11:42:49.188Z,37.25
2016-04-23T11:43:49.176Z,37.15
2016-04-23T11:44:49.148Z,36.3
2016-04-23T11:45:49.135Z,35.82
2016-04-23T11:46:49.121Z,35.63
2016-04-23T11:47:49.092Z,35.25
2016-04-23T11:48:49.065Z,34.96
2016-04-23T11:49:49.051Z,34.88
2016-04-23T11:50:49.023Z,34.5
2016-04-23T11:51:49.010Z,34.5
2016-04-23T11:52:48.998Z,34.12
2016-04-23T11:53:48.968Z,34.22
2016-04-23T11:54:48.955Z,34.31
2016-04-23T11:55:48.927Z,34.22
2016-04-23T11:56:48.914Z,34.03
2016-04-23T11:57:48.901Z,34.22
2016-04-23T11:58:48.872Z,34.22
2016-04-23T11:59:48.844Z,33.64
2016-04-23T12:00:48.831Z,33.45
2016-04-23T12:01:48.819Z,33.57
2016-04-23T12:02:48.789Z,33.85
2016-04-23T12:03:48.777Z,33.57
2016-04-23T12:04:48.779Z,33.95
2016-04-23T12:05:48.735Z,33.76
2016-04-23T12:06:48.722Z,33.57
2016-04-23T12:07:48.694Z,33.64
2016-04-23T12:08:48.680Z,33.93
2016-04-23T12:09:48.652Z,34.31
2016-04-23T12:10:48.639Z,33.93
2016-04-23T12:11:48.626Z,34.41
2016-04-23T12:12:48.598Z,34.69
2016-04-23T12:13:48.568Z,34.79
2016-04-23T12:14:48.556Z,34.88
2016-04-23T12:15:48.527Z,35.27
2016-04-23T12:16:48.515Z,35.17
2016-04-23T12:17:48.486Z,35.17
2016-04-23T12:18:48.473Z,35.44
2016-04-23T12:19:48.444Z,35.82
2016-04-23T12:20:48.604Z,36.01
2016-04-23T12:21:48.403Z,36.3
2016-04-23T12:22:48.375Z,36.68
2016-04-23T12:23:48.361Z,36.49
2016-04-23T12:24:48.333Z,36.58
2016-04-23T12:25:48.320Z,36.01
2016-04-23T12:26:48.292Z,35.82
2016-04-23T12:27:48.264Z,35.82
2016-04-23T12:28:48.250Z,34.96
2016-04-23T12:29:48.221Z,34.58
2016-04-23T12:30:48.208Z,34.39
2016-04-23T12:31:48.180Z,34.2
2016-04-23T12:32:48.152Z,34.11
2016-04-23T12:33:48.139Z,34.01
2016-04-23T12:34:48.110Z,33.53
2016-04-23T12:35:48.097Z,33.72
2016-04-23T12:36:48.069Z,32.96
2016-04-23T12:37:48.055Z,32.58
2016-04-23T12:38:48.027Z,32.2
2016-04-23T12:39:48.029Z,32.2
2016-04-23T12:40:47.985Z,31.82
2016-04-23T12:41:47.972Z,31.63
2016-04-23T12:42:47.944Z,31.72
2016-04-23T12:43:47.931Z,31.63
2016-04-23T12:44:47.902Z,31.24
2016-04-23T12:45:47.890Z,30.96
2016-04-23T12:46:47.940Z,30.49
2016-04-23T12:47:47.848Z,30.39
2016-04-23T12:48:47.820Z,30.58
2016-04-23T12:49:48.212Z,30.77
2016-04-23T12:50:47.778Z,30.96
2016-04-23T12:51:47.765Z,31.24
2016-04-23T12:52:47.737Z,31.63
2016-04-23T12:53:47.708Z,31.92
2016-04-23T12:54:47.695Z,32.01
2016-04-23T12:55:47.667Z,32.1
2016-04-23T12:56:47.669Z,32.48
2016-04-23T12:57:47.625Z,32.58
2016-04-23T12:58:47.611Z,32.48
2016-04-23T12:59:47.583Z,32.77
2016-04-23T13:00:47.570Z,32.77
2016-04-23T13:01:47.542Z,32.77
2016-04-23T13:02:47.528Z,32.77
2016-04-23T13:03:47.500Z,32.96
2016-04-23T13:04:47.487Z,33.15
2016-04-23T13:05:47.693Z,33.15
2016-04-23T13:07:00.179Z,32.87
2016-04-23T13:07:47.416Z,32.77
2016-04-23T13:08:47.403Z,32.68
2016-04-23T13:09:47.375Z,32.5
2016-04-23T13:10:47.361Z,32.12
2016-04-23T13:11:47.333Z,31.93
2016-04-23T13:12:47.320Z,31.84
2016-04-23T13:13:47.292Z,31.55
2016-04-23T13:14:47.280Z,31.45
2016-04-23T13:15:47.250Z,31.36
2016-04-23T13:16:47.237Z,31.26
2016-04-23T13:17:47.224Z,30.88
2016-04-23T13:18:47.196Z,30.5
2016-04-23T13:19:47.808Z,30.61
2016-04-23T13:20:47.170Z,30.32
2016-04-23T13:21:47.131Z,30.32
2016-04-23T13:22:47.118Z,29.56
2016-04-23T13:23:47.090Z,29.66
2016-04-23T13:24:47.076Z,29.08
2016-04-23T13:25:47.048Z,29.18
2016-04-23T13:26:47.035Z,28.89
2016-04-23T13:27:47.007Z,28.7
2016-04-23T13:28:46.992Z,28.32
2016-04-23T13:29:46.980Z,28.13
2016-04-23T13:30:46.951Z,26.98
2016-04-23T13:31:46.939Z,26.79
2016-04-23T13:32:46.910Z,26.42
2016-04-23T13:33:46.898Z,26.32
2016-04-23T13:34:46.882Z,26.61
2016-04-23T13:35:47.449Z,26.61
2016-04-23T13:36:46.824Z,26.7
2016-04-23T13:37:46.812Z,26.7
2016-04-23T13:38:46.783Z,25.94
2016-04-23T13:39:46.769Z,25.18
2016-04-23T13:40:46.742Z,24.69
2016-04-23T13:41:46.729Z,24.78
2016-04-23T13:42:46.701Z,24.59
2016-04-23T13:43:46.688Z,24.59
2016-04-23T13:44:46.659Z,24.78
2016-04-23T13:45:46.646Z,24.88
2016-04-23T13:46:46.617Z,25.16
2016-04-23T13:47:46.605Z,24.89
2016-04-23T13:48:46.577Z,24.98
2016-04-23T13:49:46.563Z,24.79
2016-04-23T13:50:46.550Z,24.89
2016-04-23T13:51:46.522Z,25.18
2016-04-23T13:52:46.509Z,25.74
2016-04-23T13:53:46.480Z,26.22
2016-04-23T13:54:46.468Z,26.61
2016-04-23T13:55:46.439Z,26.89
2016-04-23T13:56:46.426Z,27.37
2016-04-23T13:57:46.397Z,28.32
2016-04-23T13:58:46.400Z,29.74
2016-04-23T13:59:46.371Z,30.98
2016-04-23T14:00:46.343Z,32.12
2016-04-23T14:01:46.315Z,33.15
2016-04-23T14:02:46.301Z,33.82
2016-04-23T14:03:46.288Z,34.2
2016-04-23T14:04:46.260Z,34.58
2016-04-23T14:05:46.232Z,34.77
2016-04-23T14:06:46.218Z,35.63
2016-04-23T14:07:46.190Z,36.1
2016-04-23T14:08:46.162Z,36.68
2016-04-23T14:09:46.164Z,37.04
2016-04-23T14:10:46.136Z,37.61
2016-04-23T14:11:46.107Z,38.09
2016-04-23T14:12:46.078Z,38.28
2016-04-23T14:13:46.065Z,38.85
2016-04-23T14:14:46.037Z,39.32
2016-04-23T14:15:46.025Z,40.56
2016-04-23T14:16:45.995Z,41.21
2016-04-23T14:17:45.967Z,41.59
2016-04-23T14:18:45.954Z,42.54
2016-04-23T14:19:45.926Z,43.21
2016-04-23T14:20:45.913Z,43.68
2016-04-23T14:21:45.884Z,44.45
2016-04-23T14:22:45.871Z,45.75
2016-04-23T14:23:45.842Z,46.7
2016-04-23T14:24:45.813Z,47.75
2016-04-23T14:25:45.802Z,48.23
2016-04-23T14:26:45.772Z,48.13
2016-04-23T14:27:45.744Z,48.61
2016-04-23T14:28:45.731Z,48.61
2016-04-23T14:29:45.702Z,48.71
2016-04-23T14:30:45.674Z,48.71
2016-04-23T14:31:45.661Z,48.71
2016-04-23T14:32:45.632Z,49.37
2016-04-23T14:33:45.603Z,48.42
2016-04-23T14:34:46.059Z,48.23
2016-04-23T14:35:46.641Z,48.23
2016-04-23T14:36:45.534Z,47.28
2016-04-23T14:37:45.520Z,46.89
2016-04-23T14:38:45.492Z,46.04
2016-04-23T14:39:45.464Z,45.66
2016-04-23T14:40:45.451Z,45.28
2016-04-23T14:41:45.423Z,45.09
2016-04-23T14:42:45.393Z,44.61
2016-04-23T14:43:45.381Z,43.76
2016-04-23T14:44:45.353Z,43.85
2016-04-23T14:45:45.323Z,43.38
2016-04-23T14:46:45.311Z,42.99
2016-04-23T14:47:45.281Z,42.04
2016-04-23T14:48:45.269Z,41.76
2016-04-23T14:49:45.241Z,41.38
2016-04-23T14:50:45.259Z,40.9
2016-04-23T14:51:45.199Z,40.33
2016-04-23T14:52:45.170Z,40.52
2016-04-23T14:53:45.142Z,40.23
2016-04-23T14:54:45.129Z,40.16
2016-04-23T14:55:45.100Z,40.35
2016-04-23T14:56:45.088Z,40.26
2016-04-23T14:57:45.058Z,40.16
2016-04-23T14:58:45.030Z,39.59
2016-04-23T14:59:45.018Z,39.87
2016-04-23T15:00:44.989Z,39.69
2016-04-23T15:01:44.977Z,39.4
2016-04-23T15:02:44.947Z,39.12
2016-04-23T15:03:44.919Z,38.45
2016-04-23T15:04:44.907Z,38.07
2016-04-23T15:05:44.878Z,37.88
2016-04-23T15:06:44.865Z,37.88
2016-04-23T15:07:44.835Z,37.59
2016-04-23T15:08:44.807Z,37.78
2016-04-23T15:09:44.794Z,37.59
2016-04-23T15:10:44.765Z,37.21
2016-04-23T15:11:44.754Z,37.12
2016-04-23T15:12:44.724Z,36.93
2016-04-23T15:13:44.712Z,36.47
2016-04-23T15:14:44.683Z,36.47
2016-04-23T15:15:44.670Z,36.57
2016-04-23T15:16:44.642Z,36.28
2016-04-23T15:17:44.628Z,36.47
2016-04-23T15:18:44.600Z,36.57
2016-04-23T15:19:44.586Z,36.47
2016-04-23T15:20:44.606Z,36.28
2016-04-23T15:21:44.545Z,36.08
2016-04-23T15:22:44.517Z,35.8
2016-04-23T15:23:44.503Z,35.71
2016-04-23T15:24:44.475Z,35.61
2016-04-23T15:25:44.463Z,35.8
2016-04-23T15:26:44.434Z,35.71
2016-04-23T15:27:44.421Z,36.37
2016-04-23T15:28:44.393Z,36.66
2016-04-23T15:29:44.381Z,36.94
2016-04-23T15:30:44.352Z,36.76
2016-04-23T15:31:44.339Z,36.66
2016-04-23T15:32:44.310Z,36.28
2016-04-23T15:33:44.281Z,35.71
2016-04-23T15:34:44.269Z,35.89
2016-04-23T15:35:44.662Z,35.8
2016-04-23T15:36:44.228Z,35.13
2016-04-23T15:37:44.199Z,34.66
2016-04-23T15:38:44.186Z,34.47
2016-04-23T15:39:44.158Z,34.09
2016-04-23T15:40:44.145Z,33.61
2016-04-23T15:41:44.116Z,33.7
2016-04-23T15:42:44.088Z,33.7
2016-04-23T15:43:44.074Z,34.09
2016-04-23T15:44:44.046Z,33.99
2016-04-23T15:45:44.033Z,34.28
2016-04-23T15:46:44.004Z,34.47
2016-04-23T15:47:43.976Z,34.38
2016-04-23T15:48:43.963Z,33.99
2016-04-23T15:49:43.935Z,33.99
2016-04-23T15:50:43.937Z,33.42
2016-04-23T15:51:43.893Z,33.72
2016-04-23T15:52:43.880Z,33.34
2016-04-23T15:53:43.867Z,33.25
2016-04-23T15:54:43.838Z,32.79
2016-04-23T15:55:43.825Z,32.21
2016-04-23T15:56:43.797Z,31.84
2016-04-23T15:57:43.784Z,31.93
2016-04-23T15:58:43.771Z,32.12
2016-04-23T15:59:43.742Z,32.6
2016-04-23T16:00:43.729Z,32.79
2016-04-23T16:01:43.717Z,32.79
2016-04-23T16:02:43.688Z,32.79
2016-04-23T16:03:43.675Z,32.69
2016-04-23T16:04:43.646Z,32.5
2016-04-23T16:05:43.633Z,32.4
2016-04-23T16:06:43.621Z,32.5
2016-04-23T16:07:43.591Z,32.5
2016-04-23T16:08:43.580Z,32.69
2016-04-23T16:09:43.550Z,32.79
2016-04-23T16:10:43.538Z,32.96
2016-04-23T16:11:43.525Z,33.25
2016-04-23T16:12:43.496Z,33.44
2016-04-23T16:13:43.483Z,33.34
2016-04-23T16:14:43.454Z,33.7
2016-04-23T16:15:43.441Z,33.8
2016-04-23T16:16:43.413Z,34.38
2016-04-23T16:17:43.400Z,34.56
2016-04-23T16:18:43.371Z,34.85
2016-04-23T16:19:43.344Z,35.42
2016-04-23T16:20:43.330Z,35.8
2016-04-23T16:21:43.317Z,36.18
2016-04-23T16:22:43.288Z,36.18
2016-04-23T16:23:43.259Z,36.66
2016-04-23T16:24:43.262Z,36.57
2016-04-23T16:25:43.218Z,37.13
2016-04-23T16:26:43.190Z,37.69
2016-04-23T16:27:43.176Z,37.97
2016-04-23T16:28:43.149Z,38.45
2016-04-23T16:29:43.120Z,38.26
2016-04-23T16:30:43.107Z,38.35
2016-04-23T16:31:43.079Z,39.02
2016-04-23T16:32:43.050Z,39.02
2016-04-23T16:33:43.036Z,38.92
2016-04-23T16:34:43.009Z,39.12
2016-04-23T16:35:42.995Z,39.31
2016-04-23T16:36:42.967Z,38.83
2016-04-23T16:37:42.938Z,38.26
2016-04-23T16:38:42.926Z,38.35
2016-04-23T16:39:42.897Z,38.07
2016-04-23T16:40:42.868Z,37.78
2016-04-23T16:41:43.137Z,37.59
2016-04-23T16:42:42.827Z,37.3
2016-04-23T16:43:42.830Z,36.93
2016-04-23T16:44:42.785Z,37.02
2016-04-23T16:45:42.772Z,36.93
2016-04-23T16:46:42.744Z,36.57
2016-04-23T16:47:42.747Z,36.08
2016-04-23T16:48:42.761Z,35.99
2016-04-23T16:49:42.789Z,35.8
2016-04-23T16:50:42.802Z,35.99
2016-04-23T16:51:42.832Z,35.04
2016-04-23T16:52:42.832Z,34.96
2016-04-23T16:53:42.835Z,34.87
2016-04-23T16:54:42.822Z,34.67
2016-04-23T16:55:42.823Z,34.48
2016-04-23T16:56:42.810Z,34.48
2016-04-23T16:57:42.808Z,35.06
2016-04-23T16:58:42.785Z,34.87
2016-04-23T16:59:42.777Z,35.15
2016-04-23T17:00:42.770Z,35.82
2016-04-23T17:01:42.747Z,35.8
2016-04-23T17:02:42.722Z,35.61
2016-04-23T17:03:42.710Z,35.33
2016-04-23T17:04:42.684Z,35.04
2016-04-23T17:05:43.017Z,34.66
2016-04-23T17:06:42.647Z,34.56
2016-04-23T17:07:42.635Z,34.09
2016-04-23T17:08:42.606Z,34.09
2016-04-23T17:09:42.594Z,34.56
2016-04-23T17:10:42.566Z,34.47
2016-04-23T17:11:42.554Z,34.47
2016-04-23T17:12:42.526Z,34.47
2016-04-23T17:13:42.496Z,34.38
2016-04-23T17:14:42.485Z,33.99
2016-04-23T17:15:42.457Z,34.38
2016-04-23T17:16:42.444Z,34.18
2016-04-23T17:17:42.416Z,34.18
2016-04-23T17:18:42.402Z,34.18
2016-04-23T17:19:42.374Z,34.18
2016-04-23T17:20:42.361Z,34.17
2016-04-23T17:21:42.330Z,34.18
2016-04-23T17:22:42.302Z,33.5
2016-04-23T17:23:42.289Z,33.12
2016-04-23T17:24:42.260Z,32.64
2016-04-23T17:25:42.247Z,32.17
2016-04-23T17:26:42.219Z,32.07
2016-04-23T17:27:42.191Z,31.98
2016-04-23T17:28:42.178Z,32.17
2016-04-23T17:29:42.150Z,32.07
2016-04-23T17:30:42.120Z,32.07
2016-04-23T17:31:42.107Z,32.07
2016-04-23T17:32:42.080Z,32.43
2016-04-23T17:33:42.050Z,32.62
2016-04-23T17:34:42.038Z,32.91
2016-04-23T17:35:42.010Z,33.67
2016-04-23T17:36:41.980Z,33.58
2016-04-23T17:37:41.968Z,34.44
2016-04-23T17:38:41.939Z,34.63
2016-04-23T17:39:41.910Z,35.1
2016-04-23T17:40:41.898Z,35.77
2016-04-23T17:41:41.869Z,35.96
2016-04-23T17:42:41.840Z,36.53
2016-04-23T17:43:41.827Z,36.91
2016-04-23T17:44:41.799Z,37
2016-04-23T17:45:41.770Z,37.38
2016-04-23T17:46:41.742Z,38.05
2016-04-23T17:47:41.729Z,38.14
2016-04-23T17:48:41.700Z,38.81
2016-04-23T17:49:41.672Z,39.38
2016-04-23T17:50:41.643Z,40.05
2016-04-23T17:51:41.630Z,41.19
2016-04-23T17:52:41.601Z,41.38
2016-04-23T17:53:41.572Z,41.55
2016-04-23T17:54:41.560Z,41.38
2016-04-23T17:55:41.531Z,40.79
2016-04-23T17:56:41.503Z,40.41
2016-04-23T17:57:41.474Z,40.79
2016-04-23T17:58:41.461Z,40.5
2016-04-23T17:59:41.438Z,40.59
2016-04-23T18:00:41.410Z,40.5
2016-04-23T18:01:41.380Z,40.59
2016-04-23T18:02:41.368Z,40.41
2016-04-23T18:03:41.338Z,40.5
2016-04-23T18:04:41.311Z,40.88
2016-04-23T18:05:41.282Z,41.26
2016-04-23T18:06:41.268Z,41.46
2016-04-23T18:07:41.240Z,41.36
2016-04-23T18:08:41.213Z,41.81
2016-04-23T18:09:41.183Z,42
2016-04-23T18:10:41.170Z,42.47
2016-04-23T18:11:41.142Z,42.67
2016-04-23T18:12:41.113Z,42.57
2016-04-23T18:13:41.084Z,42.95
2016-04-23T18:14:41.057Z,42.86
2016-04-23T18:15:41.042Z,43.24
2016-04-23T18:16:41.015Z,44
2016-04-23T18:17:40.987Z,44.67
2016-04-23T18:18:40.958Z,44.67
2016-04-23T18:19:40.929Z,44.95
2016-04-23T18:20:40.916Z,45.52
2016-04-23T18:21:40.887Z,45.9
2016-04-23T18:22:40.859Z,45.9
2016-04-23T18:23:40.830Z,46.66
2016-04-23T18:24:40.802Z,46.85
2016-04-23T18:25:40.789Z,47.52
2016-04-23T18:26:40.761Z,47.99
2016-04-23T18:27:40.732Z,48.46
2016-04-23T18:28:40.703Z,48.46
2016-04-23T18:29:40.680Z,48.66
2016-04-23T18:30:40.666Z,48.25
2016-04-23T18:31:40.622Z,48.25
2016-04-23T18:32:40.594Z,48.25
2016-04-23T18:33:40.581Z,47.97
2016-04-23T18:34:40.552Z,48.06
2016-04-23T18:35:40.571Z,48.06
2016-04-23T18:36:40.495Z,48.25
2016-04-23T18:37:40.467Z,48.35
2016-04-23T18:38:40.438Z,48.44
2016-04-23T18:39:40.425Z,48.54
2016-04-23T18:40:40.396Z,48.25
2016-04-23T18:41:40.368Z,48.63
2016-04-23T18:42:40.340Z,48.91
2016-04-23T18:43:40.312Z,48.54
2016-04-23T18:44:40.282Z,49.87
2016-04-23T18:45:40.253Z,49.29
2016-04-23T18:46:40.242Z,49.58
2016-04-23T18:47:40.212Z,49.58
2016-04-23T18:48:40.184Z,49.96
2016-04-23T18:49:40.156Z,49.87
2016-04-23T18:50:40.923Z,49.58
2016-04-23T18:51:40.097Z,49.77
2016-04-23T18:52:40.069Z,50.05
2016-04-23T18:53:40.041Z,49.87
2016-04-23T18:54:40.013Z,50.91
2016-04-23T18:55:40.000Z,50.34
2016-04-23T18:56:39.971Z,50.34
2016-04-23T18:57:39.942Z,51.01
2016-04-23T18:58:39.914Z,51.48
2016-04-23T18:59:39.901Z,51.2
2016-04-23T19:00:39.857Z,51.48
2016-04-23T19:01:39.828Z,51.01
2016-04-23T19:02:39.816Z,51.01
2016-04-23T19:03:39.788Z,50.98
2016-04-23T19:04:39.758Z,51.36
2016-04-23T19:05:39.729Z,51.26
2016-04-23T19:06:40.232Z,51.17
2016-04-23T19:07:39.673Z,51.17
2016-04-23T19:08:39.643Z,51.64
2016-04-23T19:09:39.616Z,51.64
2016-04-23T19:10:39.587Z,51.74
2016-04-23T19:11:39.559Z,51.55
2016-04-23T19:12:39.529Z,52.12
2016-04-23T19:13:39.517Z,52.4
2016-04-23T19:14:39.488Z,52.31
2016-04-23T19:15:39.459Z,52.4
2016-04-23T19:16:39.431Z,52.31
2016-04-23T19:17:39.403Z,52.22
2016-04-23T19:18:39.374Z,52.5
2016-04-23T19:19:39.345Z,52.4
2016-04-23T19:20:39.317Z,52.5
2016-04-23T19:21:39.506Z,52.22
2016-04-23T19:22:39.275Z,52.31
2016-04-23T19:23:39.246Z,52.5
2016-04-23T19:24:39.219Z,52.59
2016-04-23T19:25:39.189Z,52.4
2016-04-23T19:26:39.161Z,52.78
2016-04-23T19:27:39.132Z,52.59